<?xml version="1.0" encoding="UTF-8" standalone="no" ?>
<gpx xmlns="http://www.topografix.com/GPX/1/1" xmlns:xsi="http://www.w3.org/2001/XMLSchema-instance" xsi:schemaLocation="http://www.topografix.com/GPX/1/1 http://www.topografix.com/GPX/1/1/gpx.xsd" version="1.1" creator="VisuGPX - https://www.visugpx.com">
  <metadata>
    <name>Villers en Fraises - 17-05-2026 - 11km300</name>
  </metadata>
  <trk>
    <name><![CDATA[Villers-en-Fraise 2026 - 11,300 km-23151713]]></name>
    <extensions>
      <line xmlns="http://www.topografix.com/GPX/gpx_style/0/2">
        <color>0000FF</color>
        <opacity>1</opacity>
        <width>4</width>
          <extensions>
            <sens>1</sens>
          </extensions>
      </line>
    </extensions>
    <trkseg>
      <trkpt lat="50.18933" lon="4.47238">
        <ele>255</ele>
        <time>2026-01-09T16:41:41Z</time>
      </trkpt>
      <trkpt lat="50.18942" lon="4.47251">
        <ele>256</ele>
        <time>2026-01-09T16:41:57Z</time>
      </trkpt>
      <trkpt lat="50.18968" lon="4.47292">
        <ele>256</ele>
        <time>2026-01-09T16:42:47Z</time>
      </trkpt>
      <trkpt lat="50.18972" lon="4.47309">
        <ele>256</ele>
        <time>2026-01-09T16:43:02Z</time>
      </trkpt>
      <trkpt lat="50.18957" lon="4.47321">
        <ele>256</ele>
        <time>2026-01-09T16:43:25Z</time>
      </trkpt>
      <trkpt lat="50.18926" lon="4.47349">
        <ele>255</ele>
        <time>2026-01-09T16:44:12Z</time>
      </trkpt>
      <trkpt lat="50.18888" lon="4.47387">
        <ele>253</ele>
        <time>2026-01-09T16:45:13Z</time>
      </trkpt>
      <trkpt lat="50.18873" lon="4.47413">
        <ele>252</ele>
        <time>2026-01-09T16:45:43Z</time>
      </trkpt>
      <trkpt lat="50.18855" lon="4.47486">
        <ele>247</ele>
        <time>2026-01-09T16:46:49Z</time>
      </trkpt>
      <trkpt lat="50.18844" lon="4.47512">
        <ele>245</ele>
        <time>2026-01-09T16:47:16Z</time>
      </trkpt>
      <trkpt lat="50.18812" lon="4.47547">
        <ele>242</ele>
        <time>2026-01-09T16:48:08Z</time>
      </trkpt>
      <trkpt lat="50.18795" lon="4.4758">
        <ele>241</ele>
        <time>2026-01-09T16:48:44Z</time>
      </trkpt>
      <trkpt lat="50.18824" lon="4.47623">
        <ele>240</ele>
        <time>2026-01-09T16:49:38Z</time>
      </trkpt>
      <trkpt lat="50.18855" lon="4.47701">
        <ele>241</ele>
        <time>2026-01-09T16:50:56Z</time>
      </trkpt>
      <trkpt lat="50.18863" lon="4.47727">
        <ele>242</ele>
        <time>2026-01-09T16:51:21Z</time>
      </trkpt>
      <trkpt lat="50.18865" lon="4.47739">
        <ele>242</ele>
        <time>2026-01-09T16:51:31Z</time>
      </trkpt>
      <trkpt lat="50.18867" lon="4.47755">
        <ele>242</ele>
        <time>2026-01-09T16:51:45Z</time>
      </trkpt>
      <trkpt lat="50.18868" lon="4.47776">
        <ele>242</ele>
        <time>2026-01-09T16:52:03Z</time>
      </trkpt>
      <trkpt lat="50.18869" lon="4.47829">
        <ele>243</ele>
        <time>2026-01-09T16:52:49Z</time>
      </trkpt>
      <trkpt lat="50.18854" lon="4.47839">
        <ele>242</ele>
        <time>2026-01-09T16:53:10Z</time>
      </trkpt>
      <trkpt lat="50.18846" lon="4.47851">
        <ele>242</ele>
        <time>2026-01-09T16:53:25Z</time>
      </trkpt>
      <trkpt lat="50.18843" lon="4.47914">
        <ele>244</ele>
        <time>2026-01-09T16:54:19Z</time>
      </trkpt>
      <trkpt lat="50.1883" lon="4.47929">
        <ele>243</ele>
        <time>2026-01-09T16:54:41Z</time>
      </trkpt>
      <trkpt lat="50.18768" lon="4.47953">
        <ele>245</ele>
        <time>2026-01-09T16:56:06Z</time>
      </trkpt>
      <trkpt lat="50.18674" lon="4.47979">
        <ele>248</ele>
        <time>2026-01-09T16:58:13Z</time>
      </trkpt>
      <trkpt lat="50.18572" lon="4.48016">
        <ele>253</ele>
        <time>2026-01-09T17:00:33Z</time>
      </trkpt>
      <trkpt lat="50.18546" lon="4.48">
        <ele>253</ele>
        <time>2026-01-09T17:01:10Z</time>
      </trkpt>
      <trkpt lat="50.18509" lon="4.47986">
        <ele>253</ele>
        <time>2026-01-09T17:02:01Z</time>
      </trkpt>
      <trkpt lat="50.18488" lon="4.47964">
        <ele>253</ele>
        <time>2026-01-09T17:02:35Z</time>
      </trkpt>
      <trkpt lat="50.18473" lon="4.47959">
        <ele>252</ele>
        <time>2026-01-09T17:02:55Z</time>
      </trkpt>
      <trkpt lat="50.18457" lon="4.48003">
        <ele>250</ele>
        <time>2026-01-09T17:03:39Z</time>
      </trkpt>
      <trkpt lat="50.18476" lon="4.48087">
        <ele>252</ele>
        <time>2026-01-09T17:04:55Z</time>
      </trkpt>
      <trkpt lat="50.1848" lon="4.48138">
        <ele>252</ele>
        <time>2026-01-09T17:05:39Z</time>
      </trkpt>
      <trkpt lat="50.18486" lon="4.4821">
        <ele>251</ele>
        <time>2026-01-09T17:06:41Z</time>
      </trkpt>
      <trkpt lat="50.18516" lon="4.48365">
        <ele>253</ele>
        <time>2026-01-09T17:08:59Z</time>
      </trkpt>
      <trkpt lat="50.18525" lon="4.48507">
        <ele>252</ele>
        <time>2026-01-09T17:11:01Z</time>
      </trkpt>
      <trkpt lat="50.18551" lon="4.48613">
        <ele>257</ele>
        <time>2026-01-09T17:12:38Z</time>
      </trkpt>
      <trkpt lat="50.18555" lon="4.48844">
        <ele>256</ele>
        <time>2026-01-09T17:15:55Z</time>
      </trkpt>
      <trkpt lat="50.18561" lon="4.48981">
        <ele>257</ele>
        <time>2026-01-09T17:17:53Z</time>
      </trkpt>
      <trkpt lat="50.18592" lon="4.49038">
        <ele>259</ele>
        <time>2026-01-09T17:18:57Z</time>
      </trkpt>
      <trkpt lat="50.18598" lon="4.49022">
        <ele>259</ele>
        <time>2026-01-09T17:19:12Z</time>
      </trkpt>
      <trkpt lat="50.18665" lon="4.48966">
        <ele>257</ele>
        <time>2026-01-09T17:20:54Z</time>
      </trkpt>
      <trkpt lat="50.18801" lon="4.48914">
        <ele>251</ele>
        <time>2026-01-09T17:24:01Z</time>
      </trkpt>
      <trkpt lat="50.18836" lon="4.48859">
        <ele>249</ele>
        <time>2026-01-09T17:25:07Z</time>
      </trkpt>
      <trkpt lat="50.18873" lon="4.48762">
        <ele>248</ele>
        <time>2026-01-09T17:26:43Z</time>
      </trkpt>
      <trkpt lat="50.18894" lon="4.48719">
        <ele>248</ele>
        <time>2026-01-09T17:27:30Z</time>
      </trkpt>
      <trkpt lat="50.18904" lon="4.487">
        <ele>248</ele>
        <time>2026-01-09T17:27:51Z</time>
      </trkpt>
      <trkpt lat="50.18894" lon="4.48719">
        <ele>248</ele>
        <time>2026-01-09T17:28:12Z</time>
      </trkpt>
      <trkpt lat="50.189" lon="4.48746">
        <ele>248</ele>
        <time>2026-01-09T17:28:36Z</time>
      </trkpt>
      <trkpt lat="50.189" lon="4.48801">
        <ele>249</ele>
        <time>2026-01-09T17:29:23Z</time>
      </trkpt>
      <trkpt lat="50.18906" lon="4.48854">
        <ele>250</ele>
        <time>2026-01-09T17:30:09Z</time>
      </trkpt>
      <trkpt lat="50.1894" lon="4.49021">
        <ele>250</ele>
        <time>2026-01-09T17:32:39Z</time>
      </trkpt>
      <trkpt lat="50.18954" lon="4.49128">
        <ele>251</ele>
        <time>2026-01-09T17:34:12Z</time>
      </trkpt>
      <trkpt lat="50.1896" lon="4.49215">
        <ele>253</ele>
        <time>2026-01-09T17:35:27Z</time>
      </trkpt>
      <trkpt lat="50.18967" lon="4.49363">
        <ele>256</ele>
        <time>2026-01-09T17:37:34Z</time>
      </trkpt>
      <trkpt lat="50.1896" lon="4.4942">
        <ele>257</ele>
        <time>2026-01-09T17:38:23Z</time>
      </trkpt>
      <trkpt lat="50.18956" lon="4.49505">
        <ele>258</ele>
        <time>2026-01-09T17:39:36Z</time>
      </trkpt>
      <trkpt lat="50.18944" lon="4.49633">
        <ele>260</ele>
        <time>2026-01-09T17:41:27Z</time>
      </trkpt>
      <trkpt lat="50.18927" lon="4.49855">
        <ele>264</ele>
        <time>2026-01-09T17:44:38Z</time>
      </trkpt>
      <trkpt lat="50.18907" lon="4.49936">
        <ele>269</ele>
        <time>2026-01-09T17:45:52Z</time>
      </trkpt>
      <trkpt lat="50.18892" lon="4.50028">
        <ele>271</ele>
        <time>2026-01-09T17:47:13Z</time>
      </trkpt>
      <trkpt lat="50.18882" lon="4.50141">
        <ele>272</ele>
        <time>2026-01-09T17:48:50Z</time>
      </trkpt>
      <trkpt lat="50.18891" lon="4.50227">
        <ele>272</ele>
        <time>2026-01-09T17:50:05Z</time>
      </trkpt>
      <trkpt lat="50.18922" lon="4.50351">
        <ele>274</ele>
        <time>2026-01-09T17:51:59Z</time>
      </trkpt>
      <trkpt lat="50.18959" lon="4.50504">
        <ele>277</ele>
        <time>2026-01-09T17:54:18Z</time>
      </trkpt>
      <trkpt lat="50.18961" lon="4.5052">
        <ele>277</ele>
        <time>2026-01-09T17:54:32Z</time>
      </trkpt>
      <trkpt lat="50.18961" lon="4.50523">
        <ele>277</ele>
        <time>2026-01-09T17:54:35Z</time>
      </trkpt>
      <trkpt lat="50.18957" lon="4.50539">
        <ele>277</ele>
        <time>2026-01-09T17:54:49Z</time>
      </trkpt>
      <trkpt lat="50.18955" lon="4.50564">
        <ele>277</ele>
        <time>2026-01-09T17:55:11Z</time>
      </trkpt>
      <trkpt lat="50.18958" lon="4.50623">
        <ele>278</ele>
        <time>2026-01-09T17:56:02Z</time>
      </trkpt>
      <trkpt lat="50.1896" lon="4.50688">
        <ele>278</ele>
        <time>2026-01-09T17:56:57Z</time>
      </trkpt>
      <trkpt lat="50.18964" lon="4.50726">
        <ele>278</ele>
        <time>2026-01-09T17:57:30Z</time>
      </trkpt>
      <trkpt lat="50.1897" lon="4.50759">
        <ele>278</ele>
        <time>2026-01-09T17:57:59Z</time>
      </trkpt>
      <trkpt lat="50.18979" lon="4.5079">
        <ele>278</ele>
        <time>2026-01-09T17:58:28Z</time>
      </trkpt>
      <trkpt lat="50.18997" lon="4.50831">
        <ele>278</ele>
        <time>2026-01-09T17:59:11Z</time>
      </trkpt>
      <trkpt lat="50.19006" lon="4.50864">
        <ele>278</ele>
        <time>2026-01-09T17:59:42Z</time>
      </trkpt>
      <trkpt lat="50.1901" lon="4.509">
        <ele>279</ele>
        <time>2026-01-09T18:00:13Z</time>
      </trkpt>
      <trkpt lat="50.19035" lon="4.5102">
        <ele>279</ele>
        <time>2026-01-09T18:02:01Z</time>
      </trkpt>
      <trkpt lat="50.19052" lon="4.51109">
        <ele>280</ele>
        <time>2026-01-09T18:03:20Z</time>
      </trkpt>
      <trkpt lat="50.19062" lon="4.5117">
        <ele>280</ele>
        <time>2026-01-09T18:04:14Z</time>
      </trkpt>
      <trkpt lat="50.19075" lon="4.51275">
        <ele>281</ele>
        <time>2026-01-09T18:05:45Z</time>
      </trkpt>
      <trkpt lat="50.19116" lon="4.5128">
        <ele>281</ele>
        <time>2026-01-09T18:06:40Z</time>
      </trkpt>
      <trkpt lat="50.19152" lon="4.51284">
        <ele>280</ele>
        <time>2026-01-09T18:07:28Z</time>
      </trkpt>
      <trkpt lat="50.1924" lon="4.51291">
        <ele>279</ele>
        <time>2026-01-09T18:09:26Z</time>
      </trkpt>
      <trkpt lat="50.19299" lon="4.51293">
        <ele>279</ele>
        <time>2026-01-09T18:10:45Z</time>
      </trkpt>
      <trkpt lat="50.19321" lon="4.51293">
        <ele>279</ele>
        <time>2026-01-09T18:11:14Z</time>
      </trkpt>
      <trkpt lat="50.19365" lon="4.51289">
        <ele>278</ele>
        <time>2026-01-09T18:12:13Z</time>
      </trkpt>
      <trkpt lat="50.19374" lon="4.51286">
        <ele>278</ele>
        <time>2026-01-09T18:12:25Z</time>
      </trkpt>
      <trkpt lat="50.19384" lon="4.51288">
        <ele>278</ele>
        <time>2026-01-09T18:12:38Z</time>
      </trkpt>
      <trkpt lat="50.19436" lon="4.51281">
        <ele>277</ele>
        <time>2026-01-09T18:13:48Z</time>
      </trkpt>
      <trkpt lat="50.19524" lon="4.51263">
        <ele>279</ele>
        <time>2026-01-09T18:15:47Z</time>
      </trkpt>
      <trkpt lat="50.19533" lon="4.51265">
        <ele>279</ele>
        <time>2026-01-09T18:15:59Z</time>
      </trkpt>
      <trkpt lat="50.19537" lon="4.51268">
        <ele>279</ele>
        <time>2026-01-09T18:16:05Z</time>
      </trkpt>
      <trkpt lat="50.19542" lon="4.51254">
        <ele>279</ele>
        <time>2026-01-09T18:16:18Z</time>
      </trkpt>
      <trkpt lat="50.19545" lon="4.51256">
        <ele>279</ele>
        <time>2026-01-09T18:16:23Z</time>
      </trkpt>
      <trkpt lat="50.19553" lon="4.51258">
        <ele>279</ele>
        <time>2026-01-09T18:16:33Z</time>
      </trkpt>
      <trkpt lat="50.19572" lon="4.51256">
        <ele>280</ele>
        <time>2026-01-09T18:16:59Z</time>
      </trkpt>
      <trkpt lat="50.19644" lon="4.51247">
        <ele>281</ele>
        <time>2026-01-09T18:18:35Z</time>
      </trkpt>
      <trkpt lat="50.19661" lon="4.51251">
        <ele>282</ele>
        <time>2026-01-09T18:18:58Z</time>
      </trkpt>
      <trkpt lat="50.19699" lon="4.51264">
        <ele>281</ele>
        <time>2026-01-09T18:19:50Z</time>
      </trkpt>
      <trkpt lat="50.19736" lon="4.51265">
        <ele>281</ele>
        <time>2026-01-09T18:20:39Z</time>
      </trkpt>
      <trkpt lat="50.1988" lon="4.51241">
        <ele>272</ele>
        <time>2026-01-09T18:23:53Z</time>
      </trkpt>
      <trkpt lat="50.19964" lon="4.51238">
        <ele>264</ele>
        <time>2026-01-09T18:25:45Z</time>
      </trkpt>
      <trkpt lat="50.20105" lon="4.51292">
        <ele>260</ele>
        <time>2026-01-09T18:28:59Z</time>
      </trkpt>
      <trkpt lat="50.20241" lon="4.51347">
        <ele>261</ele>
        <time>2026-01-09T18:32:06Z</time>
      </trkpt>
      <trkpt lat="50.20268" lon="4.51348">
        <ele>260</ele>
        <time>2026-01-09T18:32:42Z</time>
      </trkpt>
      <trkpt lat="50.20529" lon="4.51316">
        <ele>251</ele>
        <time>2026-01-09T18:38:31Z</time>
      </trkpt>
      <trkpt lat="50.20529" lon="4.5132">
        <ele>251</ele>
        <time>2026-01-09T18:38:35Z</time>
      </trkpt>
      <trkpt lat="50.2062" lon="4.50934">
        <ele>262</ele>
        <time>2026-01-09T18:44:26Z</time>
      </trkpt>
      <trkpt lat="50.20665" lon="4.50836">
        <ele>264</ele>
        <time>2026-01-09T18:46:09Z</time>
      </trkpt>
      <trkpt lat="50.20668" lon="4.50832">
        <ele>264</ele>
        <time>2026-01-09T18:46:14Z</time>
      </trkpt>
      <trkpt lat="50.20661" lon="4.50821">
        <ele>265</ele>
        <time>2026-01-09T18:46:28Z</time>
      </trkpt>
      <trkpt lat="50.20664" lon="4.50795">
        <ele>265</ele>
        <time>2026-01-09T18:46:50Z</time>
      </trkpt>
      <trkpt lat="50.20659" lon="4.50717">
        <ele>267</ele>
        <time>2026-01-09T18:47:57Z</time>
      </trkpt>
      <trkpt lat="50.20654" lon="4.50622">
        <ele>270</ele>
        <time>2026-01-09T18:49:19Z</time>
      </trkpt>
      <trkpt lat="50.20655" lon="4.50608">
        <ele>270</ele>
        <time>2026-01-09T18:49:31Z</time>
      </trkpt>
      <trkpt lat="50.2065" lon="4.50592">
        <ele>271</ele>
        <time>2026-01-09T18:49:46Z</time>
      </trkpt>
      <trkpt lat="50.20646" lon="4.50562">
        <ele>272</ele>
        <time>2026-01-09T18:50:12Z</time>
      </trkpt>
      <trkpt lat="50.20641" lon="4.50549">
        <ele>272</ele>
        <time>2026-01-09T18:50:25Z</time>
      </trkpt>
      <trkpt lat="50.20638" lon="4.50537">
        <ele>272</ele>
        <time>2026-01-09T18:50:36Z</time>
      </trkpt>
      <trkpt lat="50.20641" lon="4.50526">
        <ele>272</ele>
        <time>2026-01-09T18:50:46Z</time>
      </trkpt>
      <trkpt lat="50.20649" lon="4.50515">
        <ele>271</ele>
        <time>2026-01-09T18:51:00Z</time>
      </trkpt>
      <trkpt lat="50.20649" lon="4.50492">
        <ele>271</ele>
        <time>2026-01-09T18:51:20Z</time>
      </trkpt>
      <trkpt lat="50.2065" lon="4.50477">
        <ele>271</ele>
        <time>2026-01-09T18:51:33Z</time>
      </trkpt>
      <trkpt lat="50.20646" lon="4.50444">
        <ele>270</ele>
        <time>2026-01-09T18:52:02Z</time>
      </trkpt>
      <trkpt lat="50.20649" lon="4.50415">
        <ele>269</ele>
        <time>2026-01-09T18:52:27Z</time>
      </trkpt>
      <trkpt lat="50.20646" lon="4.50387">
        <ele>269</ele>
        <time>2026-01-09T18:52:51Z</time>
      </trkpt>
      <trkpt lat="50.20642" lon="4.50332">
        <ele>269</ele>
        <time>2026-01-09T18:53:38Z</time>
      </trkpt>
      <trkpt lat="50.20638" lon="4.50304">
        <ele>269</ele>
        <time>2026-01-09T18:54:03Z</time>
      </trkpt>
      <trkpt lat="50.20622" lon="4.50229">
        <ele>270</ele>
        <time>2026-01-09T18:55:10Z</time>
      </trkpt>
      <trkpt lat="50.20619" lon="4.50193">
        <ele>270</ele>
        <time>2026-01-09T18:55:41Z</time>
      </trkpt>
      <trkpt lat="50.20581" lon="4.50092">
        <ele>271</ele>
        <time>2026-01-09T18:57:21Z</time>
      </trkpt>
      <trkpt lat="50.20531" lon="4.49965">
        <ele>275</ele>
        <time>2026-01-09T18:59:29Z</time>
      </trkpt>
      <trkpt lat="50.20497" lon="4.49871">
        <ele>276</ele>
        <time>2026-01-09T19:01:01Z</time>
      </trkpt>
      <trkpt lat="50.20501" lon="4.49849">
        <ele>274</ele>
        <time>2026-01-09T19:01:21Z</time>
      </trkpt>
      <trkpt lat="50.20503" lon="4.49834">
        <ele>273</ele>
        <time>2026-01-09T19:01:34Z</time>
      </trkpt>
      <trkpt lat="50.20503" lon="4.49781">
        <ele>272</ele>
        <time>2026-01-09T19:02:19Z</time>
      </trkpt>
      <trkpt lat="50.20506" lon="4.49767">
        <ele>272</ele>
        <time>2026-01-09T19:02:31Z</time>
      </trkpt>
      <trkpt lat="50.20607" lon="4.49407">
        <ele>278</ele>
        <time>2026-01-09T19:08:07Z</time>
      </trkpt>
      <trkpt lat="50.20656" lon="4.49255">
        <ele>278</ele>
        <time>2026-01-09T19:10:33Z</time>
      </trkpt>
      <trkpt lat="50.20725" lon="4.48986">
        <ele>269</ele>
        <time>2026-01-09T19:14:40Z</time>
      </trkpt>
      <trkpt lat="50.20727" lon="4.489">
        <ele>266</ele>
        <time>2026-01-09T19:15:54Z</time>
      </trkpt>
      <trkpt lat="50.20714" lon="4.48834">
        <ele>265</ele>
        <time>2026-01-09T19:16:53Z</time>
      </trkpt>
      <trkpt lat="50.20659" lon="4.48398">
        <ele>256</ele>
        <time>2026-01-09T19:23:12Z</time>
      </trkpt>
      <trkpt lat="50.20665" lon="4.48146">
        <ele>255</ele>
        <time>2026-01-09T19:26:47Z</time>
      </trkpt>
      <trkpt lat="50.20551" lon="4.48088">
        <ele>258</ele>
        <time>2026-01-09T19:29:27Z</time>
      </trkpt>
      <trkpt lat="50.20547" lon="4.48085">
        <ele>258</ele>
        <time>2026-01-09T19:29:33Z</time>
      </trkpt>
      <trkpt lat="50.20544" lon="4.48095">
        <ele>258</ele>
        <time>2026-01-09T19:29:43Z</time>
      </trkpt>
      <trkpt lat="50.20519" lon="4.48086">
        <ele>259</ele>
        <time>2026-01-09T19:30:17Z</time>
      </trkpt>
      <trkpt lat="50.20474" lon="4.48076">
        <ele>261</ele>
        <time>2026-01-09T19:31:18Z</time>
      </trkpt>
      <trkpt lat="50.20443" lon="4.48074">
        <ele>263</ele>
        <time>2026-01-09T19:31:59Z</time>
      </trkpt>
      <trkpt lat="50.20363" lon="4.48056">
        <ele>268</ele>
        <time>2026-01-09T19:33:47Z</time>
      </trkpt>
      <trkpt lat="50.20328" lon="4.48046">
        <ele>270</ele>
        <time>2026-01-09T19:34:34Z</time>
      </trkpt>
      <trkpt lat="50.20301" lon="4.48041">
        <ele>271</ele>
        <time>2026-01-09T19:35:11Z</time>
      </trkpt>
      <trkpt lat="50.20252" lon="4.48038">
        <ele>273</ele>
        <time>2026-01-09T19:36:16Z</time>
      </trkpt>
      <trkpt lat="50.20211" lon="4.48038">
        <ele>273</ele>
        <time>2026-01-09T19:37:11Z</time>
      </trkpt>
      <trkpt lat="50.2017" lon="4.48037">
        <ele>273</ele>
        <time>2026-01-09T19:38:06Z</time>
      </trkpt>
      <trkpt lat="50.2016" lon="4.48032">
        <ele>273</ele>
        <time>2026-01-09T19:38:20Z</time>
      </trkpt>
      <trkpt lat="50.20151" lon="4.48019">
        <ele>273</ele>
        <time>2026-01-09T19:38:36Z</time>
      </trkpt>
      <trkpt lat="50.20128" lon="4.47991">
        <ele>274</ele>
        <time>2026-01-09T19:39:15Z</time>
      </trkpt>
      <trkpt lat="50.20104" lon="4.47967">
        <ele>274</ele>
        <time>2026-01-09T19:39:53Z</time>
      </trkpt>
      <trkpt lat="50.20038" lon="4.47905">
        <ele>274</ele>
        <time>2026-01-09T19:41:36Z</time>
      </trkpt>
      <trkpt lat="50.20021" lon="4.47892">
        <ele>273</ele>
        <time>2026-01-09T19:42:01Z</time>
      </trkpt>
      <trkpt lat="50.20012" lon="4.47889">
        <ele>272</ele>
        <time>2026-01-09T19:42:13Z</time>
      </trkpt>
      <trkpt lat="50.20004" lon="4.47891">
        <ele>272</ele>
        <time>2026-01-09T19:42:24Z</time>
      </trkpt>
      <trkpt lat="50.19995" lon="4.47896">
        <ele>271</ele>
        <time>2026-01-09T19:42:37Z</time>
      </trkpt>
      <trkpt lat="50.19979" lon="4.47913">
        <ele>272</ele>
        <time>2026-01-09T19:43:03Z</time>
      </trkpt>
      <trkpt lat="50.19947" lon="4.47959">
        <ele>274</ele>
        <time>2026-01-09T19:44:01Z</time>
      </trkpt>
      <trkpt lat="50.19909" lon="4.48001">
        <ele>277</ele>
        <time>2026-01-09T19:45:03Z</time>
      </trkpt>
      <trkpt lat="50.19839" lon="4.48065">
        <ele>281</ele>
        <time>2026-01-09T19:46:51Z</time>
      </trkpt>
      <trkpt lat="50.19805" lon="4.48095">
        <ele>281</ele>
        <time>2026-01-09T19:47:43Z</time>
      </trkpt>
      <trkpt lat="50.19787" lon="4.48109">
        <ele>281</ele>
        <time>2026-01-09T19:48:10Z</time>
      </trkpt>
      <trkpt lat="50.1977" lon="4.48119">
        <ele>281</ele>
        <time>2026-01-09T19:48:34Z</time>
      </trkpt>
      <trkpt lat="50.19752" lon="4.48125">
        <ele>280</ele>
        <time>2026-01-09T19:48:59Z</time>
      </trkpt>
      <trkpt lat="50.19672" lon="4.4815">
        <ele>278</ele>
        <time>2026-01-09T19:50:48Z</time>
      </trkpt>
      <trkpt lat="50.19644" lon="4.48155">
        <ele>278</ele>
        <time>2026-01-09T19:51:25Z</time>
      </trkpt>
      <trkpt lat="50.19659" lon="4.48094">
        <ele>278</ele>
        <time>2026-01-09T19:52:21Z</time>
      </trkpt>
      <trkpt lat="50.19684" lon="4.4798">
        <ele>279</ele>
        <time>2026-01-09T19:54:04Z</time>
      </trkpt>
      <trkpt lat="50.19687" lon="4.47966">
        <ele>279</ele>
        <time>2026-01-09T19:54:17Z</time>
      </trkpt>
      <trkpt lat="50.19688" lon="4.4795">
        <ele>279</ele>
        <time>2026-01-09T19:54:30Z</time>
      </trkpt>
      <trkpt lat="50.19683" lon="4.47706">
        <ele>282</ele>
        <time>2026-01-09T19:57:59Z</time>
      </trkpt>
      <trkpt lat="50.19681" lon="4.47682">
        <ele>283</ele>
        <time>2026-01-09T19:58:20Z</time>
      </trkpt>
      <trkpt lat="50.19672" lon="4.47632">
        <ele>283</ele>
        <time>2026-01-09T19:59:04Z</time>
      </trkpt>
      <trkpt lat="50.19663" lon="4.47564">
        <ele>283</ele>
        <time>2026-01-09T20:00:03Z</time>
      </trkpt>
      <trkpt lat="50.1965" lon="4.4738">
        <ele>284</ele>
        <time>2026-01-09T20:02:41Z</time>
      </trkpt>
      <trkpt lat="50.19642" lon="4.47242">
        <ele>283</ele>
        <time>2026-01-09T20:04:40Z</time>
      </trkpt>
      <trkpt lat="50.1961" lon="4.46826">
        <ele>283</ele>
        <time>2026-01-09T20:10:38Z</time>
      </trkpt>
      <trkpt lat="50.19542" lon="4.46877">
        <ele>284</ele>
        <time>2026-01-09T20:12:18Z</time>
      </trkpt>
      <trkpt lat="50.19524" lon="4.4689">
        <ele>284</ele>
        <time>2026-01-09T20:12:45Z</time>
      </trkpt>
      <trkpt lat="50.19494" lon="4.46925">
        <ele>285</ele>
        <time>2026-01-09T20:13:35Z</time>
      </trkpt>
      <trkpt lat="50.19429" lon="4.47022">
        <ele>284</ele>
        <time>2026-01-09T20:15:35Z</time>
      </trkpt>
      <trkpt lat="50.19392" lon="4.47053">
        <ele>282</ele>
        <time>2026-01-09T20:16:31Z</time>
      </trkpt>
      <trkpt lat="50.19239" lon="4.47208">
        <ele>273</ele>
        <time>2026-01-09T20:20:34Z</time>
      </trkpt>
      <trkpt lat="50.1906" lon="4.47252">
        <ele>261</ele>
        <time>2026-01-09T20:24:36Z</time>
      </trkpt>
      <trkpt lat="50.18996" lon="4.47292">
        <ele>257</ele>
        <time>2026-01-09T20:26:08Z</time>
      </trkpt>
      <trkpt lat="50.18972" lon="4.47309">
        <ele>256</ele>
        <time>2026-01-09T20:26:43Z</time>
      </trkpt>
      <trkpt lat="50.18968" lon="4.47292">
        <ele>256</ele>
        <time>2026-01-09T20:26:59Z</time>
      </trkpt>
      <trkpt lat="50.18943" lon="4.47252">
        <ele>256</ele>
        <time>2026-01-09T20:27:46Z</time>
        <extensions>
          <visugpx:TrkExtension xmlns:visugpx="https://www.visugpx.com/editgpx/">
            <visugpx:node>1</visugpx:node>
            </visugpx:TrkExtension>
        </extensions>
      </trkpt>
    </trkseg>
  </trk>
</gpx>